sensor_id;sensor_type;location;lat;lon;timestamp;P1;durP1;ratioP1;P2;durP2;ratioP2
253;SDS011;590;48.772;8.846;2023-03-04T00:01:21;11.13;;;10.53;;
253;SDS011;590;48.772;8.846;2023-03-04T00:03:49;10.17;;;9.67;;
253;SDS011;590;48.772;8.846;2023-03-04T00:06:17;9.50;;;9.00;;
253;SDS011;590;48.772;8.846;2023-03-04T00:08:46;10.13;;;9.63;;
253;SDS011;590;48.772;8.846;2023-03-04T00:11:14;9.77;;;9.27;;
253;SDS011;590;48.772;8.846;2023-03-04T00:13:42;9.50;;;9.00;;
253;SDS011;590;48.772;8.846;2023-03-04T00:16:10;9.77;;;9.27;;
253;SDS011;590;48.772;8.846;2023-03-04T00:18:38;10.20;;;9.70;;
253;SDS011;590;48.772;8.846;2023-03-04T00:21:06;9.97;;;9.47;;
253;SDS011;590;48.772;8.846;2023-03-04T00:23:34;9.83;;;9.33;;
253;SDS011;590;48.772;8.846;2023-03-04T00:26:04;9.53;;;9.03;;
253;SDS011;590;48.772;8.846;2023-03-04T00:28:33;9.43;;;8.93;;
253;SDS011;590;48.772;8.846;2023-03-04T00:31:01;10.20;;;9.70;;
253;SDS011;590;48.772;8.846;2023-03-04T00:33:29;9.73;;;9.23;;
253;SDS011;590;48.772;8.846;2023-03-04T00:35:57;9.00;;;8.50;;
253;SDS011;590;48.772;8.846;2023-03-04T00:38:25;9.70;;;9.20;;
253;SDS011;590;48.772;8.846;2023-03-04T00:40:53;9.90;;;9.40;;
253;SDS011;590;48.772;8.846;2023-03-04T00:43:23;9.27;;;8.77;;
253;SDS011;590;48.772;8.846;2023-03-04T00:45:51;9.23;;;8.73;;
253;SDS011;590;48.772;8.846;2023-03-04T00:48:22;9.70;;;9.20;;
253;SDS011;590;48.772;8.846;2023-03-04T00:50:50;10.00;;;9.50;;
253;SDS011;590;48.772;8.846;2023-03-04T00:53:19;11.43;;;10.83;;
253;SDS011;590;48.772;8.846;2023-03-04T00:55:49;9.57;;;9.07;;
253;SDS011;590;48.772;8.846;2023-03-04T00:58:17;9.73;;;9.23;;
253;SDS011;590;48.772;8.846;2023-03-04T01:00:46;10.07;;;9.57;;
253;SDS011;590;48.772;8.846;2023-03-04T01:03:14;10.10;;;9.60;;
253;SDS011;590;48.772;8.846;2023-03-04T01:05:42;9.30;;;8.80;;
253;SDS011;590;48.772;8.846;2023-03-04T01:08:10;9.80;;;9.30;;
253;SDS011;590;48.772;8.846;2023-03-04T01:10:38;9.63;;;9.13;;
253;SDS011;590;48.772;8.846;2023-03-04T01:13:06;9.60;;;9.10;;
253;SDS011;590;48.772;8.846;2023-03-04T01:15:37;10.10;;;9.60;;
253;SDS011;590;48.772;8.846;2023-03-04T01:18:06;10.32;;;9.82;;
253;SDS011;590;48.772;8.846;2023-03-04T01:20:34;10.30;;;9.80;;
253;SDS011;590;48.772;8.846;2023-03-04T01:23:02;9.10;;;8.60;;
253;SDS011;590;48.772;8.846;2023-03-04T01:25:30;10.00;;;9.50;;
253;SDS011;590;48.772;8.846;2023-03-04T01:27:58;10.13;;;9.63;;
253;SDS011;590;48.772;8.846;2023-03-04T01:30:26;10.73;;;10.13;;
253;SDS011;590;48.772;8.846;2023-03-04T01:32:54;9.17;;;8.67;;
253;SDS011;590;48.772;8.846;2023-03-04T01:35:23;10.80;;;10.20;;
253;SDS011;590;48.772;8.846;2023-03-04T01:37:51;9.87;;;9.37;;
253;SDS011;590;48.772;8.846;2023-03-04T01:40:19;10.67;;;10.07;;
253;SDS011;590;48.772;8.846;2023-03-04T01:42:47;9.83;;;9.33;;
253;SDS011;590;48.772;8.846;2023-03-04T01:45:16;9.77;;;9.27;;
253;SDS011;590;48.772;8.846;2023-03-04T01:47:46;10.30;;;9.80;;
253;SDS011;590;48.772;8.846;2023-03-04T01:50:17;10.83;;;10.23;;
253;SDS011;590;48.772;8.846;2023-03-04T01:52:49;10.33;;;9.80;;
253;SDS011;590;48.772;8.846;2023-03-04T01:55:18;10.43;;;9.90;;
253;SDS011;590;48.772;8.846;2023-03-04T01:57:48;10.03;;;9.53;;
253;SDS011;590;48.772;8.846;2023-03-04T02:00:19;10.20;;;9.70;;
253;SDS011;590;48.772;8.846;2023-03-04T02:02:52;10.67;;;10.07;;
253;SDS011;590;48.772;8.846;2023-03-04T02:05:21;9.83;;;9.33;;
253;SDS011;590;48.772;8.846;2023-03-04T02:07:51;9.93;;;9.43;;
253;SDS011;590;48.772;8.846;2023-03-04T02:10:21;10.40;;;9.90;;
253;SDS011;590;48.772;8.846;2023-03-04T02:12:50;9.67;;;9.17;;
253;SDS011;590;48.772;8.846;2023-03-04T02:15:18;9.67;;;9.17;;
253;SDS011;590;48.772;8.846;2023-03-04T02:17:47;9.77;;;9.27;;
253;SDS011;590;48.772;8.846;2023-03-04T02:20:18;9.27;;;8.77;;
253;SDS011;590;48.772;8.846;2023-03-04T02:22:55;9.70;;;9.20;;
253;SDS011;590;48.772;8.846;2023-03-04T02:25:30;8.77;;;8.27;;
253;SDS011;590;48.772;8.846;2023-03-04T02:28:03;10.10;;;9.60;;
253;SDS011;590;48.772;8.846;2023-03-04T02:30:31;9.33;;;8.83;;
253;SDS011;590;48.772;8.846;2023-03-04T02:33:00;9.27;;;8.77;;
253;SDS011;590;48.772;8.846;2023-03-04T02:35:28;9.93;;;9.43;;
253;SDS011;590;48.772;8.846;2023-03-04T02:37:56;9.80;;;9.30;;
253;SDS011;590;48.772;8.846;2023-03-04T02:40:25;8.70;;;8.20;;
253;SDS011;590;48.772;8.846;2023-03-04T02:42:57;8.83;;;8.33;;
253;SDS011;590;48.772;8.846;2023-03-04T02:45:40;8.93;;;8.43;;
253;SDS011;590;48.772;8.846;2023-03-04T02:48:10;9.63;;;9.13;;
253;SDS011;590;48.772;8.846;2023-03-04T02:50:40;9.30;;;8.80;;
253;SDS011;590;48.772;8.846;2023-03-04T02:53:10;8.87;;;8.37;;
253;SDS011;590;48.772;8.846;2023-03-04T02:55:40;11.10;;;10.50;;
253;SDS011;590;48.772;8.846;2023-03-04T02:58:09;9.70;;;9.20;;
253;SDS011;590;48.772;8.846;2023-03-04T03:00:38;9.10;;;8.60;;
253;SDS011;590;48.772;8.846;2023-03-04T03:03:07;10.57;;;10.00;;
253;SDS011;590;48.772;8.846;2023-03-04T03:05:36;9.90;;;9.40;;
253;SDS011;590;48.772;8.846;2023-03-04T03:08:04;8.70;;;8.20;;
253;SDS011;590;48.772;8.846;2023-03-04T03:10:32;9.47;;;8.97;;
253;SDS011;590;48.772;8.846;2023-03-04T03:13:01;8.80;;;8.30;;
253;SDS011;590;48.772;8.846;2023-03-04T03:15:29;9.00;;;8.50;;
253;SDS011;590;48.772;8.846;2023-03-04T03:17:58;9.47;;;8.97;;
253;SDS011;590;48.772;8.846;2023-03-04T03:20:26;9.57;;;9.07;;
253;SDS011;590;48.772;8.846;2023-03-04T03:22:54;9.17;;;8.67;;
253;SDS011;590;48.772;8.846;2023-03-04T03:25:22;8.80;;;8.30;;
253;SDS011;590;48.772;8.846;2023-03-04T03:27:50;9.00;;;8.50;;
253;SDS011;590;48.772;8.846;2023-03-04T03:30:18;8.83;;;8.33;;
253;SDS011;590;48.772;8.846;2023-03-04T03:32:46;8.97;;;8.47;;
253;SDS011;590;48.772;8.846;2023-03-04T03:35:15;10.20;;;9.70;;
253;SDS011;590;48.772;8.846;2023-03-04T03:37:43;8.67;;;8.17;;
253;SDS011;590;48.772;8.846;2023-03-04T03:40:12;7.57;;;7.17;;
253;SDS011;590;48.772;8.846;2023-03-04T03:42:40;8.83;;;8.33;;
253;SDS011;590;48.772;8.846;2023-03-04T03:45:08;9.17;;;8.67;;
253;SDS011;590;48.772;8.846;2023-03-04T03:47:37;8.30;;;7.90;;
253;SDS011;590;48.772;8.846;2023-03-04T03:50:06;9.20;;;8.70;;
253;SDS011;590;48.772;8.846;2023-03-04T03:52:35;8.60;;;8.10;;
253;SDS011;590;48.772;8.846;2023-03-04T03:55:04;8.57;;;8.07;;
253;SDS011;590;48.772;8.846;2023-03-04T03:57:32;8.07;;;7.67;;
253;SDS011;590;48.772;8.846;2023-03-04T04:00:00;8.83;;;8.33;;
253;SDS011;590;48.772;8.846;2023-03-04T04:02:28;8.60;;;8.10;;
253;SDS011;590;48.772;8.846;2023-03-04T04:04:56;9.13;;;8.63;;
253;SDS011;590;48.772;8.846;2023-03-04T04:07:24;8.67;;;8.17;;
253;SDS011;590;48.772;8.846;2023-03-04T04:09:54;9.90;;;9.40;;
253;SDS011;590;48.772;8.846;2023-03-04T04:12:23;8.77;;;8.27;;
253;SDS011;590;48.772;8.846;2023-03-04T04:14:51;8.60;;;8.10;;
253;SDS011;590;48.772;8.846;2023-03-04T04:17:19;8.73;;;8.23;;
253;SDS011;590;48.772;8.846;2023-03-04T04:19:47;9.20;;;8.70;;
253;SDS011;590;48.772;8.846;2023-03-04T04:22:16;8.67;;;8.17;;
253;SDS011;590;48.772;8.846;2023-03-04T04:24:45;8.07;;;7.67;;
253;SDS011;590;48.772;8.846;2023-03-04T04:27:15;8.23;;;7.83;;
253;SDS011;590;48.772;8.846;2023-03-04T04:29:43;8.77;;;8.27;;
253;SDS011;590;48.772;8.846;2023-03-04T04:32:11;9.13;;;8.63;;
253;SDS011;590;48.772;8.846;2023-03-04T04:34:39;8.03;;;7.63;;
253;SDS011;590;48.772;8.846;2023-03-04T04:37:07;9.33;;;8.70;;
253;SDS011;590;48.772;8.846;2023-03-04T04:39:35;8.93;;;8.43;;
253;SDS011;590;48.772;8.846;2023-03-04T04:42:03;8.47;;;8.00;;
253;SDS011;590;48.772;8.846;2023-03-04T04:44:33;8.37;;;7.93;;
253;SDS011;590;48.772;8.846;2023-03-04T04:47:04;9.67;;;9.17;;
253;SDS011;590;48.772;8.846;2023-03-04T04:49:32;8.47;;;8.00;;
253;SDS011;590;48.772;8.846;2023-03-04T04:52:00;8.50;;;8.00;;
253;SDS011;590;48.772;8.846;2023-03-04T04:54:28;9.37;;;8.87;;
253;SDS011;590;48.772;8.846;2023-03-04T04:56:56;8.60;;;8.10;;
253;SDS011;590;48.772;8.846;2023-03-04T04:59:24;9.20;;;8.70;;
253;SDS011;590;48.772;8.846;2023-03-04T05:01:54;8.60;;;8.10;;
253;SDS011;590;48.772;8.846;2023-03-04T05:04:22;7.90;;;7.50;;
253;SDS011;590;48.772;8.846;2023-03-04T05:06:50;8.03;;;7.63;;
253;SDS011;590;48.772;8.846;2023-03-04T05:09:18;9.20;;;8.70;;
253;SDS011;590;48.772;8.846;2023-03-04T05:11:46;7.77;;;7.37;;
253;SDS011;590;48.772;8.846;2023-03-04T05:14:14;8.73;;;8.23;;
253;SDS011;590;48.772;8.846;2023-03-04T05:16:42;7.87;;;7.47;;
253;SDS011;590;48.772;8.846;2023-03-04T05:19:11;8.20;;;7.80;;
253;SDS011;590;48.772;8.846;2023-03-04T05:21:39;8.50;;;8.00;;
253;SDS011;590;48.772;8.846;2023-03-04T05:24:07;8.10;;;7.70;;
253;SDS011;590;48.772;8.846;2023-03-04T05:26:35;8.90;;;8.40;;
253;SDS011;590;48.772;8.846;2023-03-04T05:29:03;8.27;;;7.87;;
253;SDS011;590;48.772;8.846;2023-03-04T05:31:31;8.33;;;7.90;;
253;SDS011;590;48.772;8.846;2023-03-04T05:33:59;8.37;;;7.93;;
253;SDS011;590;48.772;8.846;2023-03-04T05:36:28;6.90;;;6.50;;
253;SDS011;590;48.772;8.846;2023-03-04T05:38:56;7.87;;;7.47;;
253;SDS011;590;48.772;8.846;2023-03-04T05:41:24;7.50;;;7.10;;
253;SDS011;590;48.772;8.846;2023-03-04T05:43:52;8.30;;;7.90;;
253;SDS011;590;48.772;8.846;2023-03-04T05:46:21;7.50;;;7.10;;
253;SDS011;590;48.772;8.846;2023-03-04T05:48:51;7.67;;;7.27;;
253;SDS011;590;48.772;8.846;2023-03-04T05:51:20;7.13;;;6.73;;
253;SDS011;590;48.772;8.846;2023-03-04T05:53:50;8.37;;;7.93;;
253;SDS011;590;48.772;8.846;2023-03-04T05:56:18;8.20;;;7.80;;
253;SDS011;590;48.772;8.846;2023-03-04T05:58:47;7.90;;;7.50;;
253;SDS011;590;48.772;8.846;2023-03-04T06:01:15;8.10;;;7.70;;
253;SDS011;590;48.772;8.846;2023-03-04T06:03:43;7.57;;;7.17;;
253;SDS011;590;48.772;8.846;2023-03-04T06:06:13;7.10;;;6.70;;
253;SDS011;590;48.772;8.846;2023-03-04T06:08:41;7.27;;;6.87;;
253;SDS011;590;48.772;8.846;2023-03-04T06:11:11;7.10;;;6.70;;
253;SDS011;590;48.772;8.846;2023-03-04T06:13:39;6.90;;;6.50;;
253;SDS011;590;48.772;8.846;2023-03-04T06:16:07;6.50;;;6.10;;
253;SDS011;590;48.772;8.846;2023-03-04T06:18:35;7.90;;;7.50;;
253;SDS011;590;48.772;8.846;2023-03-04T06:21:04;7.33;;;6.93;;
253;SDS011;590;48.772;8.846;2023-03-04T06:23:32;7.63;;;7.23;;
253;SDS011;590;48.772;8.846;2023-03-04T06:26:01;7.07;;;6.67;;
253;SDS011;590;48.772;8.846;2023-03-04T06:28:31;7.30;;;6.90;;
253;SDS011;590;48.772;8.846;2023-03-04T06:30:58;6.90;;;6.50;;
253;SDS011;590;48.772;8.846;2023-03-04T06:33:27;7.17;;;6.77;;
253;SDS011;590;48.772;8.846;2023-03-04T06:35:55;8.63;;;8.13;;
253;SDS011;590;48.772;8.846;2023-03-04T06:38:23;7.63;;;7.23;;
253;SDS011;590;48.772;8.846;2023-03-04T06:40:52;7.40;;;7.00;;
253;SDS011;590;48.772;8.846;2023-03-04T06:43:23;6.73;;;6.33;;
253;SDS011;590;48.772;8.846;2023-03-04T06:45:52;8.00;;;7.60;;
253;SDS011;590;48.772;8.846;2023-03-04T06:48:20;7.57;;;7.17;;
253;SDS011;590;48.772;8.846;2023-03-04T06:50:48;7.67;;;7.27;;
253;SDS011;590;48.772;8.846;2023-03-04T06:53:16;6.93;;;6.53;;
253;SDS011;590;48.772;8.846;2023-03-04T06:55:44;7.90;;;7.50;;
253;SDS011;590;48.772;8.846;2023-03-04T06:58:12;6.87;;;6.47;;
253;SDS011;590;48.772;8.846;2023-03-04T07:00:42;6.90;;;6.50;;
253;SDS011;590;48.772;8.846;2023-03-04T07:03:11;7.07;;;6.67;;
253;SDS011;590;48.772;8.846;2023-03-04T07:05:41;7.07;;;6.67;;
253;SDS011;590;48.772;8.846;2023-03-04T07:08:09;6.83;;;6.43;;
253;SDS011;590;48.772;8.846;2023-03-04T07:10:37;6.63;;;6.23;;
253;SDS011;590;48.772;8.846;2023-03-04T07:13:05;6.97;;;6.57;;
253;SDS011;590;48.772;8.846;2023-03-04T07:15:33;5.80;;;5.50;;
253;SDS011;590;48.772;8.846;2023-03-04T07:18:01;6.80;;;6.40;;
253;SDS011;590;48.772;8.846;2023-03-04T07:20:31;6.60;;;6.20;;
253;SDS011;590;48.772;8.846;2023-03-04T07:22:59;7.97;;;7.57;;
253;SDS011;590;48.772;8.846;2023-03-04T07:25:27;7.30;;;6.90;;
253;SDS011;590;48.772;8.846;2023-03-04T07:27:55;7.33;;;6.93;;
253;SDS011;590;48.772;8.846;2023-03-04T07:30:23;7.63;;;7.23;;
253;SDS011;590;48.772;8.846;2023-03-04T07:32:51;7.40;;;7.00;;
253;SDS011;590;48.772;8.846;2023-03-04T07:35:19;8.13;;;7.73;;
253;SDS011;590;48.772;8.846;2023-03-04T07:37:48;7.27;;;6.87;;
253;SDS011;590;48.772;8.846;2023-03-04T07:40:16;7.50;;;7.10;;
253;SDS011;590;48.772;8.846;2023-03-04T07:42:48;6.67;;;6.27;;
253;SDS011;590;48.772;8.846;2023-03-04T07:45:16;7.67;;;7.27;;
253;SDS011;590;48.772;8.846;2023-03-04T07:47:44;7.17;;;6.77;;
253;SDS011;590;48.772;8.846;2023-03-04T07:50:13;7.07;;;6.67;;
253;SDS011;590;48.772;8.846;2023-03-04T07:52:44;7.37;;;6.97;;
253;SDS011;590;48.772;8.846;2023-03-04T07:55:15;6.87;;;6.47;;
253;SDS011;590;48.772;8.846;2023-03-04T07:57:44;7.87;;;7.47;;
253;SDS011;590;48.772;8.846;2023-03-04T08:00:14;7.27;;;6.87;;
253;SDS011;590;48.772;8.846;2023-03-04T08:02:43;7.30;;;6.90;;
253;SDS011;590;48.772;8.846;2023-03-04T08:05:11;6.97;;;6.57;;
253;SDS011;590;48.772;8.846;2023-03-04T08:07:39;6.87;;;6.47;;
253;SDS011;590;48.772;8.846;2023-03-04T08:10:08;7.07;;;6.67;;
253;SDS011;590;48.772;8.846;2023-03-04T08:12:38;7.60;;;7.20;;
253;SDS011;590;48.772;8.846;2023-03-04T08:15:14;6.07;;;5.77;;
253;SDS011;590;48.772;8.846;2023-03-04T08:17:42;7.27;;;6.87;;
253;SDS011;590;48.772;8.846;2023-03-04T08:20:10;7.07;;;6.67;;
253;SDS011;590;48.772;8.846;2023-03-04T08:22:39;6.80;;;6.40;;
253;SDS011;590;48.772;8.846;2023-03-04T08:25:07;7.68;;;7.28;;
253;SDS011;590;48.772;8.846;2023-03-04T08:27:35;6.87;;;6.47;;
253;SDS011;590;48.772;8.846;2023-03-04T08:30:05;6.10;;;5.80;;
253;SDS011;590;48.772;8.846;2023-03-04T08:32:34;6.87;;;6.47;;
253;SDS011;590;48.772;8.846;2023-03-04T08:35:03;7.10;;;6.70;;
253;SDS011;590;48.772;8.846;2023-03-04T08:37:31;6.60;;;6.20;;
253;SDS011;590;48.772;8.846;2023-03-04T08:39:59;6.60;;;6.20;;
253;SDS011;590;48.772;8.846;2023-03-04T08:42:27;6.40;;;6.00;;
253;SDS011;590;48.772;8.846;2023-03-04T08:44:55;6.80;;;6.40;;
253;SDS011;590;48.772;8.846;2023-03-04T08:47:24;6.97;;;6.57;;
253;SDS011;590;48.772;8.846;2023-03-04T08:49:52;6.60;;;6.20;;
253;SDS011;590;48.772;8.846;2023-03-04T08:52:20;5.70;;;5.40;;
253;SDS011;590;48.772;8.846;2023-03-04T08:54:48;6.93;;;6.53;;
253;SDS011;590;48.772;8.846;2023-03-04T08:57:16;6.10;;;5.80;;
253;SDS011;590;48.772;8.846;2023-03-04T08:59:44;5.70;;;5.40;;
253;SDS011;590;48.772;8.846;2023-03-04T09:02:12;6.77;;;6.23;;
253;SDS011;590;48.772;8.846;2023-03-04T09:04:41;5.73;;;5.43;;
253;SDS011;590;48.772;8.846;2023-03-04T09:07:09;5.80;;;5.50;;
253;SDS011;590;48.772;8.846;2023-03-04T09:09:37;5.80;;;5.50;;
253;SDS011;590;48.772;8.846;2023-03-04T09:12:06;6.00;;;5.70;;
253;SDS011;590;48.772;8.846;2023-03-04T09:14:34;5.93;;;5.63;;
253;SDS011;590;48.772;8.846;2023-03-04T09:17:02;6.13;;;5.83;;
253;SDS011;590;48.772;8.846;2023-03-04T09:19:30;5.53;;;5.23;;
253;SDS011;590;48.772;8.846;2023-03-04T09:22:00;6.30;;;5.70;;
253;SDS011;590;48.772;8.846;2023-03-04T09:24:28;5.17;;;4.87;;
253;SDS011;590;48.772;8.846;2023-03-04T09:26:56;5.47;;;5.17;;
253;SDS011;590;48.772;8.846;2023-03-04T09:29:24;5.40;;;5.10;;
253;SDS011;590;48.772;8.846;2023-03-04T09:31:52;5.80;;;5.50;;
253;SDS011;590;48.772;8.846;2023-03-04T09:34:20;6.00;;;5.70;;
253;SDS011;590;48.772;8.846;2023-03-04T09:36:47;5.30;;;5.00;;
253;SDS011;590;48.772;8.846;2023-03-04T09:39:17;5.47;;;5.20;;
253;SDS011;590;48.772;8.846;2023-03-04T09:41:45;5.70;;;5.40;;
253;SDS011;590;48.772;8.846;2023-03-04T09:44:21;5.23;;;4.93;;
253;SDS011;590;48.772;8.846;2023-03-04T09:46:52;5.30;;;5.00;;
253;SDS011;590;48.772;8.846;2023-03-04T09:49:23;5.10;;;4.80;;
253;SDS011;590;48.772;8.846;2023-03-04T09:51:54;5.40;;;5.10;;
253;SDS011;590;48.772;8.846;2023-03-04T09:54:38;5.63;;;5.33;;
253;SDS011;590;48.772;8.846;2023-03-04T09:57:22;5.27;;;4.97;;
253;SDS011;590;48.772;8.846;2023-03-04T09:59:57;5.30;;;5.00;;
253;SDS011;590;48.772;8.846;2023-03-04T10:02:37;5.50;;;5.20;;
253;SDS011;590;48.772;8.846;2023-03-04T10:05:13;6.53;;;6.13;;
253;SDS011;590;48.772;8.846;2023-03-04T10:07:45;5.40;;;5.10;;
253;SDS011;590;48.772;8.846;2023-03-04T10:10:19;5.60;;;5.33;;
253;SDS011;590;48.772;8.846;2023-03-04T10:12:52;5.50;;;5.20;;
253;SDS011;590;48.772;8.846;2023-03-04T10:15:31;5.10;;;4.80;;
253;SDS011;590;48.772;8.846;2023-03-04T10:18:05;4.80;;;4.50;;
253;SDS011;590;48.772;8.846;2023-03-04T10:20:46;5.80;;;5.50;;
253;SDS011;590;48.772;8.846;2023-03-04T10:23:20;5.83;;;5.53;;
253;SDS011;590;48.772;8.846;2023-03-04T10:25:52;6.27;;;5.93;;
253;SDS011;590;48.772;8.846;2023-03-04T10:28:22;5.77;;;5.47;;
253;SDS011;590;48.772;8.846;2023-03-04T10:30:54;5.67;;;5.37;;
253;SDS011;590;48.772;8.846;2023-03-04T10:33:26;5.40;;;5.10;;
253;SDS011;590;48.772;8.846;2023-03-04T10:36:00;6.07;;;5.77;;
253;SDS011;590;48.772;8.846;2023-03-04T10:38:30;6.40;;;6.00;;
253;SDS011;590;48.772;8.846;2023-03-04T10:41:04;5.87;;;5.57;;
253;SDS011;590;48.772;8.846;2023-03-04T10:43:39;6.13;;;5.83;;
253;SDS011;590;48.772;8.846;2023-03-04T10:46:09;6.60;;;6.20;;
253;SDS011;590;48.772;8.846;2023-03-04T10:48:39;5.90;;;5.60;;
253;SDS011;590;48.772;8.846;2023-03-04T10:51:10;6.50;;;6.10;;
253;SDS011;590;48.772;8.846;2023-03-04T10:53:44;5.77;;;5.47;;
253;SDS011;590;48.772;8.846;2023-03-04T11:01:58;7.30;;;6.20;;
253;SDS011;590;48.772;8.846;2023-03-04T11:04:27;6.80;;;6.40;;
253;SDS011;590;48.772;8.846;2023-03-04T11:07:00;5.60;;;5.30;;
253;SDS011;590;48.772;8.846;2023-03-04T11:09:28;5.93;;;5.63;;
253;SDS011;590;48.772;8.846;2023-03-04T11:11:59;6.60;;;6.20;;
253;SDS011;590;48.772;8.846;2023-03-04T11:14:30;6.73;;;6.33;;
253;SDS011;590;48.772;8.846;2023-03-04T11:17:08;6.50;;;6.10;;
253;SDS011;590;48.772;8.846;2023-03-04T11:19:44;6.33;;;5.97;;
253;SDS011;590;48.772;8.846;2023-03-04T11:22:17;7.50;;;7.10;;
253;SDS011;590;48.772;8.846;2023-03-04T11:24:50;7.90;;;7.50;;
253;SDS011;590;48.772;8.846;2023-03-04T11:27:33;7.37;;;6.97;;
253;SDS011;590;48.772;8.846;2023-03-04T11:30:19;5.93;;;5.63;;
253;SDS011;590;48.772;8.846;2023-03-04T11:33:03;5.97;;;5.67;;
253;SDS011;590;48.772;8.846;2023-03-04T11:35:41;7.37;;;6.97;;
253;SDS011;590;48.772;8.846;2023-03-04T11:38:15;6.27;;;5.93;;
253;SDS011;590;48.772;8.846;2023-03-04T11:40:47;6.07;;;5.77;;
253;SDS011;590;48.772;8.846;2023-03-04T11:43:21;6.17;;;5.87;;
253;SDS011;590;48.772;8.846;2023-03-04T11:45:58;6.97;;;6.57;;
253;SDS011;590;48.772;8.846;2023-03-04T11:48:40;7.40;;;7.00;;
253;SDS011;590;48.772;8.846;2023-03-04T11:51:17;6.87;;;6.47;;
253;SDS011;590;48.772;8.846;2023-03-04T11:53:53;6.60;;;6.20;;
253;SDS011;590;48.772;8.846;2023-03-04T11:56:34;6.63;;;6.23;;
253;SDS011;590;48.772;8.846;2023-03-04T12:02:14;7.37;;;6.97;;
253;SDS011;590;48.772;8.846;2023-03-04T12:04:56;6.70;;;6.30;;
253;SDS011;590;48.772;8.846;2023-03-04T12:11:00;7.73;;;7.33;;
253;SDS011;590;48.772;8.846;2023-03-04T12:16:26;7.43;;;7.03;;
253;SDS011;590;48.772;8.846;2023-03-04T12:19:17;7.43;;;7.03;;
253;SDS011;590;48.772;8.846;2023-03-04T12:22:03;6.67;;;6.27;;
253;SDS011;590;48.772;8.846;2023-03-04T12:25:02;7.50;;;7.10;;
253;SDS011;590;48.772;8.846;2023-03-04T12:27:46;7.67;;;7.27;;
253;SDS011;590;48.772;8.846;2023-03-04T12:30:28;7.87;;;7.47;;
253;SDS011;590;48.772;8.846;2023-03-04T12:33:08;7.67;;;7.27;;
253;SDS011;590;48.772;8.846;2023-03-04T12:35:45;7.90;;;7.50;;
253;SDS011;590;48.772;8.846;2023-03-04T12:38:21;5.40;;;5.10;;
253;SDS011;590;48.772;8.846;2023-03-04T12:41:08;7.67;;;7.30;;
253;SDS011;590;48.772;8.846;2023-03-04T12:43:51;6.83;;;6.43;;
253;SDS011;590;48.772;8.846;2023-03-04T12:46:25;7.63;;;7.23;;
253;SDS011;590;48.772;8.846;2023-03-04T12:49:04;7.83;;;7.43;;
253;SDS011;590;48.772;8.846;2023-03-04T12:51:47;7.50;;;7.10;;
253;SDS011;590;48.772;8.846;2023-03-04T12:54:23;7.23;;;6.83;;
253;SDS011;590;48.772;8.846;2023-03-04T12:56:59;7.37;;;6.97;;
253;SDS011;590;48.772;8.846;2023-03-04T12:59:32;6.97;;;6.57;;
253;SDS011;590;48.772;8.846;2023-03-04T13:02:10;7.53;;;7.13;;
253;SDS011;590;48.772;8.846;2023-03-04T13:04:57;7.43;;;7.03;;
253;SDS011;590;48.772;8.846;2023-03-04T13:07:36;6.70;;;6.30;;
253;SDS011;590;48.772;8.846;2023-03-04T13:10:10;6.93;;;6.40;;
253;SDS011;590;48.772;8.846;2023-03-04T13:12:46;7.17;;;6.77;;
253;SDS011;590;48.772;8.846;2023-03-04T13:15:26;7.70;;;7.30;;
253;SDS011;590;48.772;8.846;2023-03-04T13:18:00;6.40;;;6.00;;
253;SDS011;590;48.772;8.846;2023-03-04T13:20:32;7.53;;;7.13;;
253;SDS011;590;48.772;8.846;2023-03-04T13:23:03;8.27;;;7.87;;
253;SDS011;590;48.772;8.846;2023-03-04T13:25:48;7.07;;;6.67;;
253;SDS011;590;48.772;8.846;2023-03-04T13:28:40;7.67;;;7.27;;
253;SDS011;590;48.772;8.846;2023-03-04T13:31:16;8.60;;;8.10;;
253;SDS011;590;48.772;8.846;2023-03-04T13:33:57;7.30;;;6.90;;
253;SDS011;590;48.772;8.846;2023-03-04T13:36:34;7.17;;;6.77;;
253;SDS011;590;48.772;8.846;2023-03-04T13:39:25;7.10;;;6.70;;
253;SDS011;590;48.772;8.846;2023-03-04T13:42:02;7.57;;;7.17;;
253;SDS011;590;48.772;8.846;2023-03-04T13:47:32;8.10;;;7.70;;
253;SDS011;590;48.772;8.846;2023-03-04T13:50:18;7.60;;;7.20;;
253;SDS011;590;48.772;8.846;2023-03-04T13:56:10;8.03;;;7.63;;
253;SDS011;590;48.772;8.846;2023-03-04T13:58:46;7.97;;;7.57;;
253;SDS011;590;48.772;8.846;2023-03-04T14:01:20;8.93;;;8.43;;
253;SDS011;590;48.772;8.846;2023-03-04T14:03:51;7.90;;;7.50;;
253;SDS011;590;48.772;8.846;2023-03-04T14:06:20;8.27;;;7.87;;
253;SDS011;590;48.772;8.846;2023-03-04T14:08:52;6.87;;;6.47;;
253;SDS011;590;48.772;8.846;2023-03-04T14:11:27;8.63;;;8.13;;
253;SDS011;590;48.772;8.846;2023-03-04T14:13:59;8.33;;;7.90;;
253;SDS011;590;48.772;8.846;2023-03-04T14:16:34;7.60;;;7.20;;
253;SDS011;590;48.772;8.846;2023-03-04T14:19:11;8.53;;;8.03;;
253;SDS011;590;48.772;8.846;2023-03-04T14:21:45;9.23;;;7.50;;
253;SDS011;590;48.772;8.846;2023-03-04T14:24:14;8.00;;;7.60;;
253;SDS011;590;48.772;8.846;2023-03-04T14:26:46;7.90;;;7.50;;
253;SDS011;590;48.772;8.846;2023-03-04T14:29:21;7.00;;;6.60;;
253;SDS011;590;48.772;8.846;2023-03-04T14:31:50;7.80;;;7.40;;
253;SDS011;590;48.772;8.846;2023-03-04T14:34:22;8.60;;;8.10;;
253;SDS011;590;48.772;8.846;2023-03-04T14:36:53;7.73;;;7.33;;
253;SDS011;590;48.772;8.846;2023-03-04T14:39:21;8.27;;;7.87;;
253;SDS011;590;48.772;8.846;2023-03-04T14:41:54;8.63;;;7.67;;
253;SDS011;590;48.772;8.846;2023-03-04T14:44:28;7.83;;;7.43;;
253;SDS011;590;48.772;8.846;2023-03-04T14:47:05;8.30;;;7.90;;
253;SDS011;590;48.772;8.846;2023-03-04T14:49:37;9.17;;;7.93;;
253;SDS011;590;48.772;8.846;2023-03-04T14:52:06;7.83;;;7.43;;
253;SDS011;590;48.772;8.846;2023-03-04T14:54:57;8.00;;;7.60;;
253;SDS011;590;48.772;8.846;2023-03-04T14:57:28;7.87;;;7.47;;
253;SDS011;590;48.772;8.846;2023-03-04T15:00:13;8.20;;;7.80;;
253;SDS011;590;48.772;8.846;2023-03-04T15:02:42;8.20;;;7.80;;
253;SDS011;590;48.772;8.846;2023-03-04T15:05:15;8.60;;;8.10;;
253;SDS011;590;48.772;8.846;2023-03-04T15:07:53;8.63;;;8.20;;
253;SDS011;590;48.772;8.846;2023-03-04T15:10:23;7.80;;;7.00;;
253;SDS011;590;48.772;8.846;2023-03-04T15:12:56;8.57;;;8.07;;
253;SDS011;590;48.772;8.846;2023-03-04T15:15:39;7.97;;;7.57;;
253;SDS011;590;48.772;8.846;2023-03-04T15:18:15;8.23;;;7.80;;
253;SDS011;590;48.772;8.846;2023-03-04T15:20:58;8.73;;;8.23;;
253;SDS011;590;48.772;8.846;2023-03-04T15:23:32;8.90;;;8.40;;
253;SDS011;590;48.772;8.846;2023-03-04T15:26:01;7.73;;;7.33;;
253;SDS011;590;48.772;8.846;2023-03-04T15:28:33;8.33;;;7.90;;
253;SDS011;590;48.772;8.846;2023-03-04T15:31:02;9.23;;;8.73;;
253;SDS011;590;48.772;8.846;2023-03-04T15:33:31;8.60;;;7.90;;
253;SDS011;590;48.772;8.846;2023-03-04T15:36:00;8.03;;;7.63;;
253;SDS011;590;48.772;8.846;2023-03-04T15:38:38;9.23;;;8.20;;
253;SDS011;590;48.772;8.846;2023-03-04T15:42:28;8.37;;;7.93;;
253;SDS011;590;48.772;8.846;2023-03-04T15:45:04;9.17;;;7.90;;
253;SDS011;590;48.772;8.846;2023-03-04T15:47:50;7.43;;;7.03;;
253;SDS011;590;48.772;8.846;2023-03-04T15:50:18;8.33;;;7.90;;
253;SDS011;590;48.772;8.846;2023-03-04T15:52:47;7.70;;;7.30;;
253;SDS011;590;48.772;8.846;2023-03-04T15:55:17;9.00;;;8.50;;
253;SDS011;590;48.772;8.846;2023-03-04T15:57:47;7.60;;;7.20;;
253;SDS011;590;48.772;8.846;2023-03-04T16:00:24;8.10;;;7.70;;
253;SDS011;590;48.772;8.846;2023-03-04T16:02:52;8.20;;;7.80;;
253;SDS011;590;48.772;8.846;2023-03-04T16:05:21;7.73;;;7.33;;
253;SDS011;590;48.772;8.846;2023-03-04T16:07:49;9.00;;;7.90;;
253;SDS011;590;48.772;8.846;2023-03-04T16:10:24;7.70;;;7.33;;
253;SDS011;590;48.772;8.846;2023-03-04T16:12:55;8.00;;;7.60;;
253;SDS011;590;48.772;8.846;2023-03-04T16:15:27;8.13;;;7.73;;
253;SDS011;590;48.772;8.846;2023-03-04T16:17:56;8.40;;;7.90;;
253;SDS011;590;48.772;8.846;2023-03-04T16:20:26;8.07;;;7.67;;
253;SDS011;590;48.772;8.846;2023-03-04T16:22:56;8.13;;;7.73;;
253;SDS011;590;48.772;8.846;2023-03-04T16:25:26;7.37;;;6.97;;
253;SDS011;590;48.772;8.846;2023-03-04T16:27:55;7.57;;;7.17;;
253;SDS011;590;48.772;8.846;2023-03-04T16:30:30;8.47;;;8.00;;
253;SDS011;590;48.772;8.846;2023-03-04T16:32:58;7.83;;;7.43;;